Time;durP1;ratioP1;P1;durP2;ratioP2;P2;SDS_P1;SDS_P2;PMS_P1;PMS_P2;Temp;Humidity;BMP_temperature;BMP_pressure;BME280_temperature;BME280_humidity;BME280_pressure;Samples;Min_cycle;Max_cycle;Signal;HPM_P1;HPM_P2
2022/05/10 00:02:11;;;;;;;;;22.75;19.50;;;;;22.64;61.75;101745.25;5037101;28;46061;-81
2022/05/10 00:04:37;;;;;;;;;19.50;16.25;;;;;22.59;61.95;101742.59;5036690;28;46005;-81
2022/05/10 00:07:03;;;;;;;;;23.50;21.75;;;;;22.54;62.24;101737.25;5036599;28;45419;-81
2022/05/10 00:09:29;;;;;;;;;23.25;20.00;;;;;22.54;62.30;101736.41;5036839;28;45600;-80
2022/05/10 00:11:57;;;;;;;;;21.00;19.50;;;;;22.52;62.66;101733.72;5018267;28;47557;-81
2022/05/10 00:14:24;;;;;;;;;19.25;18.50;;;;;22.53;62.57;101730.22;5036420;28;45931;-80
2022/05/10 00:16:52;;;;;;;;;20.00;20.00;;;;;22.55;63.05;101725.84;5036341;28;45407;-81
2022/05/10 00:19:20;;;;;;;;;18.75;17.00;;;;;22.59;63.20;101728.50;5036668;28;45698;-81
2022/05/10 00:21:47;;;;;;;;;20.00;20.00;;;;;22.60;62.71;101719.72;5035569;28;46240;-81
2022/05/10 00:24:13;;;;;;;;;18.50;17.00;;;;;22.60;62.89;101723.25;5036429;28;45420;-81
2022/05/10 00:26:40;;;;;;;;;19.00;17.25;;;;;22.59;62.88;101725.88;5036566;28;45278;-81
2022/05/10 00:29:06;;;;;;;;;20.75;19.25;;;;;22.59;62.85;101720.59;5036238;28;45340;-81
2022/05/10 00:31:32;;;;;;;;;18.00;16.25;;;;;22.55;62.95;101720.56;5036624;28;45736;-81
2022/05/10 00:34:00;;;;;;;;;21.25;20.25;;;;;22.50;63.12;101722.28;5017912;28;45404;-81
2022/05/10 00:36:27;;;;;;;;;21.25;18.00;;;;;22.47;63.12;101718.72;5036091;28;45300;-81
2022/05/10 00:38:53;;;;;;;;;19.75;18.50;;;;;22.42;63.24;101711.66;5035944;28;45667;-81
2022/05/10 00:41:46;;;;;;;;;23.75;21.25;;;;;22.39;63.68;101716.84;5035912;28;45304;-81
2022/05/10 00:44:20;;;;;;;;;20.25;19.50;;;;;22.35;63.59;101704.47;5036003;28;45271;-81
2022/05/10 00:46:59;;;;;;;;;23.00;20.50;;;;;22.33;64.03;101705.34;5035884;28;45472;-81
2022/05/10 00:49:39;;;;;;;;;22.75;20.75;;;;;22.32;63.59;101706.22;5036301;28;45396;-80
2022/05/10 00:52:14;;;;;;;;;28.00;24.00;;;;;22.31;64.27;101696.53;5035641;28;46080;-80
2022/05/10 00:55:22;;;;;;;;;19.50;19.25;;;;;22.27;64.72;101693.88;5036262;28;45347;-81
2022/05/10 00:58:17;;;;;;;;;18.50;17.50;;;;;22.24;65.16;101692.97;5015171;28;45479;-81
2022/05/10 01:00:44;;;;;;;;;20.50;19.00;;;;;22.19;65.18;101699.94;5035415;28;45522;-80
2022/05/10 01:03:18;;;;;;;;;23.25;21.50;;;;;22.14;65.22;101699.00;5035761;28;45291;-80
2022/05/10 01:05:51;;;;;;;;;23.25;21.25;;;;;22.10;65.74;101700.69;5035310;28;45197;-81
2022/05/10 01:08:22;;;;;;;;;24.00;22.25;;;;;22.06;66.04;101704.19;5035896;28;45327;-80
2022/05/10 01:11:05;;;;;;;;;21.25;21.00;;;;;22.02;65.44;101698.00;5035767;28;45578;-81
2022/05/10 01:13:57;;;;;;;;;19.75;19.50;;;;;22.02;65.83;101694.47;5035501;28;45442;-81
2022/05/10 01:16:24;;;;;;;;;24.50;20.00;;;;;22.02;66.07;101678.66;5035476;28;45903;-81
2022/05/10 01:18:52;;;;;;;;;21.25;20.25;;;;;21.99;66.27;101673.31;5035587;28;45531;-80
2022/05/10 01:21:55;;;;;;;;;20.00;18.50;;;;;21.98;67.06;101676.81;5018121;28;45538;-81
2022/05/10 01:24:41;;;;;;;;;22.50;20.00;;;;;21.94;67.08;101684.72;5017455;28;45438;-81
2022/05/10 01:27:16;;;;;;;;;20.00;17.00;;;;;21.94;67.04;101682.09;5035965;28;45382;-81
2022/05/10 01:29:52;;;;;;;;;23.25;21.00;;;;;21.98;67.23;101679.47;5035434;28;45382;-81
2022/05/10 01:35:37;;;;;;;;;19.50;19.50;;;;;21.97;66.81;101675.97;5024487;28;45383;-81
2022/05/10 01:38:11;;;;;;;;;24.75;22.00;;;;;21.92;67.02;101662.72;5035117;28;45372;-81
2022/05/10 01:40:48;;;;;;;;;24.25;23.25;;;;;21.89;66.87;101664.44;5039376;28;45394;-81
2022/05/10 01:43:27;;;;;;;;;26.25;23.25;;;;;21.84;67.30;101667.03;5021102;28;45482;-81
2022/05/10 01:46:00;;;;;;;;;25.50;24.50;;;;;21.80;67.48;101659.94;5038381;28;45397;-81
2022/05/10 01:48:26;;;;;;;;;22.50;21.00;;;;;21.75;67.94;101662.53;5039019;28;45443;-81
2022/05/10 01:50:58;;;;;;;;;21.50;19.75;;;;;21.69;68.35;101658.94;5039052;28;45323;-81
2022/05/10 01:53:34;;;;;;;;;22.00;22.00;;;;;21.61;68.44;101658.81;5020393;28;45248;-81
2022/05/10 01:56:04;;;;;;;;;22.25;22.25;;;;;21.56;69.02;101655.22;5038311;28;45853;-81
2022/05/10 01:58:33;;;;;;;;;24.50;24.00;;;;;21.55;68.99;101651.69;5020512;28;45856;-81
2022/05/10 02:01:11;;;;;;;;;23.50;20.50;;;;;21.50;69.37;101646.38;5038368;28;45389;-81
2022/05/10 02:03:53;;;;;;;;;25.25;23.75;;;;;21.50;68.47;101642.84;5038980;28;45498;-81
2022/05/10 02:06:46;;;;;;;;;19.50;19.50;;;;;21.51;69.54;101644.63;5038181;28;45492;-81
2022/05/10 02:09:38;;;;;;;;;25.00;21.25;;;;;21.50;69.21;101646.38;5038479;28;45174;-81
2022/05/10 02:12:22;;;;;;;;;24.00;22.50;;;;;21.52;70.02;101649.03;5038285;28;45463;-81
2022/05/10 02:14:56;;;;;;;;;23.00;21.75;;;;;21.50;69.38;101642.84;5038155;28;45319;-81
2022/05/10 02:17:38;;;;;;;;;24.25;22.25;;;;;21.54;69.57;101642.03;5038157;28;46082;-80
2022/05/10 02:20:08;;;;;;;;;25.25;23.75;;;;;21.59;69.42;101637.72;5038023;28;45325;-81
2022/05/10 02:22:47;;;;;;;;;27.75;23.50;;;;;21.64;69.10;101643.06;5038253;28;45328;-80
2022/05/10 02:25:42;;;;;;;;;29.25;28.00;;;;;21.65;68.89;101632.53;5038142;28;45423;-81
2022/05/10 02:28:24;;;;;;;;;32.75;30.50;;;;;21.63;68.87;101641.28;5012246;28;46039;-81
2022/05/10 02:30:54;;;;;;;;;33.00;31.50;;;;;21.62;69.19;101648.31;5037462;28;45424;-81
2022/05/10 02:33:21;;;;;;;;;35.25;32.25;;;;;21.60;69.13;101636.88;5038176;28;45295;-81
2022/05/10 02:35:54;;;;;;;;;33.25;31.25;;;;;21.62;69.17;101644.78;5037933;28;45423;-81
2022/05/10 02:38:26;;;;;;;;;34.50;32.00;;;;;21.59;69.50;101632.47;5037828;28;46605;-81
2022/05/10 02:40:55;;;;;;;;;32.50;29.50;;;;;21.57;69.75;101630.66;5037686;28;46058;-81
2022/05/10 02:43:34;;;;;;;;;32.75;29.00;;;;;21.58;69.52;101629.78;5037995;28;45488;-81
2022/05/10 02:46:00;;;;;;;;;36.00;30.25;;;;;21.57;69.69;101628.88;5037735;28;45473;-81
2022/05/10 02:48:34;;;;;;;;;35.25;30.00;;;;;21.61;69.56;101632.47;5019615;28;47025;-81
2022/05/10 02:51:00;;;;;;;;;37.00;31.00;;;;;21.60;69.74;101621.06;5018162;28;45824;-81
2022/05/10 02:53:29;;;;;;;;;31.75;30.25;;;;;21.62;69.50;101616.69;5037905;28;45913;-80
2022/05/10 02:56:03;;;;;;;;;33.50;30.50;;;;;21.61;69.28;101616.66;5037700;28;45233;-80
2022/05/10 02:59:01;;;;;;;;;35.25;32.50;;;;;21.57;69.59;101610.44;5019743;28;47869;-81
2022/05/10 03:01:50;;;;;;;;;36.50;32.25;;;;;21.62;69.65;101621.06;5037921;28;45319;-80
2022/05/10 03:04:17;;;;;;;;;36.00;32.00;;;;;21.56;69.17;101605.16;5036664;28;46005;-80
2022/05/10 03:06:46;;;;;;;;;37.00;33.25;;;;;21.55;69.74;101599.00;5019700;28;45366;-80
2022/05/10 03:09:13;;;;;;;;;38.25;32.25;;;;;21.62;69.82;101610.53;5037560;28;46098;-81
2022/05/10 03:11:39;;;;;;;;;36.50;31.75;;;;;21.60;69.84;101607.88;5037749;28;45455;-81
2022/05/10 03:14:07;;;;;;;;;34.00;33.00;;;;;21.60;69.94;101607.88;5037061;28;45341;-80
2022/05/10 03:16:34;;;;;;;;;29.75;28.50;;;;;21.55;70.19;101606.91;5037638;28;45431;-80
2022/05/10 03:19:00;;;;;;;;;36.25;31.25;;;;;21.53;69.65;101603.38;5036995;28;45390;-81
2022/05/10 03:21:26;;;;;;;;;37.25;33.00;;;;;21.54;70.39;101602.53;5037244;28;45301;-81
2022/05/10 03:23:52;;;;;;;;;37.25;31.50;;;;;21.52;70.96;101590.16;5037098;28;45320;-81
2022/05/10 03:26:23;;;;;;;;;32.25;30.50;;;;;21.49;70.59;101589.25;5037431;28;45338;-81
2022/05/10 03:28:49;;;;;;;;;27.00;25.00;;;;;21.49;70.96;101588.41;5036841;28;45352;-81
2022/05/10 03:31:17;;;;;;;;;31.50;29.25;;;;;21.50;71.13;101592.81;5037001;28;45878;-80
2022/05/10 03:33:43;;;;;;;;;35.25;30.75;;;;;21.51;71.48;101591.94;5037010;28;45348;-81
2022/05/10 03:36:09;;;;;;;;;32.25;28.75;;;;;21.52;71.28;101582.25;5037666;28;45331;-81
2022/05/10 03:38:36;;;;;;;;;32.25;29.75;;;;;21.50;71.50;101584.91;5036917;28;45450;-80
2022/05/10 03:41:03;;;;;;;;;37.00;30.25;;;;;21.54;71.41;101585.81;5035676;28;45400;-81
2022/05/10 03:43:28;;;;;;;;;29.25;26.00;;;;;21.51;71.40;101584.03;5018976;28;45304;-81
2022/05/10 03:45:54;;;;;;;;;31.25;30.00;;;;;21.53;71.87;101579.66;5037049;28;45451;-81
2022/05/10 03:48:20;;;;;;;;;29.25;27.75;;;;;21.53;71.45;101589.31;5036934;28;45384;-81
2022/05/10 03:50:46;;;;;;;;;27.75;27.50;;;;;21.51;71.57;101570.84;5036147;28;45430;-80
2022/05/10 03:53:12;;;;;;;;;30.00;28.75;;;;;21.53;71.09;101577.03;5037563;28;45320;-81
2022/05/10 03:55:37;;;;;;;;;28.50;28.25;;;;;21.54;71.01;101568.28;5038297;28;45462;-80
2022/05/10 03:58:04;;;;;;;;;30.75;28.75;;;;;21.58;71.18;101582.34;5036388;28;45728;-81
2022/05/10 04:00:30;;;;;;;;;24.00;18.75;;;;;21.52;71.51;101577.00;5036540;28;46067;-80
2022/05/10 04:02:57;;;;;;;;;38.00;33.75;;;;;21.44;72.09;101576.91;5036060;28;45480;-80
2022/05/10 04:05:24;;;;;;;;;28.50;28.25;;;;;21.41;72.46;101577.75;5036322;28;45248;-80
2022/05/10 04:07:50;;;;;;;;;30.50;27.00;;;;;21.38;71.96;101577.72;5036348;28;46056;-81
2022/05/10 04:10:17;;;;;;;;;33.75;30.00;;;;;21.33;72.48;101577.66;5036625;28;45416;-81
2022/05/10 04:12:43;;;;;;;;;31.50;29.75;;;;;21.27;72.35;101574.97;5036526;28;45419;-81
2022/05/10 04:15:14;;;;;;;;;35.00;30.25;;;;;21.24;72.58;101577.53;5036892;28;45515;-80
2022/05/10 04:17:42;;;;;;;;;33.00;31.25;;;;;21.21;73.33;101574.00;5036690;28;46097;-80
2022/05/10 04:20:10;;;;;;;;;30.50;28.50;;;;;21.19;73.27;101572.22;5036943;28;45868;-80
2022/05/10 04:22:35;;;;;;;;;31.00;28.00;;;;;21.18;73.55;101573.06;5036493;28;45340;-81
2022/05/10 04:25:01;;;;;;;;;28.50;28.50;;;;;21.21;73.31;101572.25;5036362;28;45269;-80
2022/05/10 04:27:27;;;;;;;;;30.25;27.50;;;;;21.26;73.39;101573.19;5036214;28;46083;-81
2022/05/10 04:29:52;;;;;;;;;32.75;29.25;;;;;21.29;72.90;101564.44;5035823;28;45919;-81
2022/05/10 04:32:18;;;;;;;;;36.00;30.25;;;;;21.36;72.74;101565.41;5035798;28;45431;-81
2022/05/10 04:34:44;;;;;;;;;31.75;25.75;;;;;21.37;72.66;101561.91;5018392;28;45611;-81
2022/05/10 04:37:10;;;;;;;;;30.25;26.00;;;;;21.40;72.19;101567.22;5036258;28;45931;-81
2022/05/10 04:42:19;;;;;;;;;31.25;29.50;;;;;21.48;72.20;101570.81;5036415;28;45311;-81
2022/05/10 04:44:45;;;;;;;;;34.00;31.50;;;;;21.52;72.51;101575.25;5036814;28;45482;-81
2022/05/10 04:47:10;;;;;;;;;35.75;32.00;;;;;21.56;72.15;101568.28;5036514;28;45428;-82
2022/05/10 04:49:36;;;;;;;;;32.75;29.00;;;;;21.53;71.46;101562.97;5053764;28;45276;-82
2022/05/10 04:52:03;;;;;;;;;32.25;28.50;;;;;21.59;71.37;101569.22;5056035;28;45412;-82
2022/05/10 04:54:28;;;;;;;;;28.50;25.50;;;;;21.59;70.89;101574.50;5055910;28;45514;-82
2022/05/10 04:56:54;;;;;;;;;32.50;29.75;;;;;21.58;71.38;101571.81;5055808;28;46491;-81
2022/05/10 04:59:19;;;;;;;;;29.25;27.50;;;;;21.60;70.96;101576.25;5034352;28;45351;-81
2022/05/10 05:01:45;;;;;;;;;27.75;25.50;;;;;21.60;71.23;101571.00;5035843;28;45379;-81
2022/05/10 05:04:11;;;;;;;;;34.75;27.25;;;;;21.61;71.48;101572.75;5032255;28;45517;-81
2022/05/10 05:06:39;;;;;;;;;33.25;29.00;;;;;21.63;70.89;101570.13;5013754;28;45930;-81
2022/05/10 05:09:06;;;;;;;;;24.75;23.00;;;;;21.66;70.25;101575.44;5014048;28;46002;-81
2022/05/10 05:11:32;;;;;;;;;18.75;18.75;;;;;21.71;70.06;101568.47;5014182;28;45554;-81
2022/05/10 05:13:57;;;;;;;;;24.50;24.25;;;;;21.75;70.07;101572.03;5020022;28;45603;-81
2022/05/10 05:16:23;;;;;;;;;25.25;21.75;;;;;21.79;69.14;101569.44;5028561;28;45435;-81
2022/05/10 05:18:49;;;;;;;;;23.00;23.00;;;;;21.82;69.12;101575.59;5028970;28;45391;-81
2022/05/10 05:21:15;;;;;;;;;23.00;23.00;;;;;21.87;68.28;101577.41;5027644;28;45341;-81
2022/05/10 05:23:41;;;;;;;;;26.00;24.25;;;;;21.89;67.15;101575.69;5030886;28;45385;-81
2022/05/10 05:26:07;;;;;;;;;23.25;20.00;;;;;21.92;67.26;101581.00;5034808;28;46110;-81
2022/05/10 05:28:33;;;;;;;;;21.25;19.50;;;;;21.97;67.35;101569.63;5026823;28;45206;-80
2022/05/10 05:31:00;;;;;;;;;18.50;16.00;;;;;22.01;65.29;101574.94;5028813;28;45347;-81
2022/05/10 05:33:26;;;;;;;;;22.00;21.00;;;;;22.06;64.05;101577.63;5031775;28;45686;-81
2022/05/10 05:35:51;;;;;;;;;15.00;15.00;;;;;22.10;62.98;101571.47;5031439;28;46052;-81
2022/05/10 05:38:17;;;;;;;;;17.75;16.50;;;;;22.15;62.50;101582.97;5034864;28;45442;-82
2022/05/10 05:40:44;;;;;;;;;15.75;14.00;;;;;22.19;61.63;101579.47;5029277;28;45423;-82
2022/05/10 05:43:19;;;;;;;;;16.50;14.25;;;;;22.23;61.78;101576.00;5038684;28;45585;-81
2022/05/10 05:45:45;;;;;;;;;14.75;14.75;;;;;22.26;60.74;101569.84;5034971;28;45576;-81
2022/05/10 05:48:11;;;;;;;;;18.75;13.25;;;;;22.33;60.28;101584.00;5032273;28;45337;-81
2022/05/10 05:50:37;;;;;;;;;16.00;15.00;;;;;22.35;60.34;101577.84;5021136;28;45420;-80
2022/05/10 05:53:04;;;;;;;;;15.25;15.00;;;;;22.40;60.22;101580.56;5003176;28;45978;-81
2022/05/10 05:55:30;;;;;;;;;15.25;15.25;;;;;22.41;60.15;101577.94;5036616;28;45562;-82
2022/05/10 05:57:57;;;;;;;;;14.00;14.00;;;;;22.45;59.11;101583.25;5038679;28;45666;-81
2022/05/10 06:00:25;;;;;;;;;16.00;15.00;;;;;22.47;59.16;101582.38;5039902;28;45405;-83
2022/05/10 06:02:51;;;;;;;;;12.00;12.00;;;;;22.47;59.09;101566.56;5036465;28;45535;-83
2022/05/10 06:05:18;;;;;;;;;15.50;13.75;;;;;22.48;59.07;101575.34;5031221;28;46080;-82
2022/05/10 06:07:44;;;;;;;;;14.00;13.50;;;;;22.53;59.20;101579.78;5043564;28;45222;-85
2022/05/10 06:10:13;;;;;;;;;13.50;13.50;;;;;22.59;59.40;101578.06;5036783;28;45761;-83
2022/05/10 06:12:40;;;;;;;;;15.00;13.50;;;;;22.62;58.53;101580.75;5039080;28;45599;-85
2022/05/10 06:15:10;;;;;;;;;11.75;11.75;;;;;22.64;58.30;101587.78;5038836;28;45401;-85
2022/05/10 06:17:38;;;;;;;;;17.25;15.75;;;;;22.63;58.48;101579.84;5038521;28;45505;-86
2022/05/10 06:20:06;;;;;;;;;22.00;20.75;;;;;22.67;59.07;101582.53;5037939;28;45467;-84
2022/05/10 06:22:34;;;;;;;;;18.75;18.75;;;;;22.68;58.32;101575.50;5034295;28;45331;-84
2022/05/10 06:24:59;;;;;;;;;16.75;16.75;;;;;22.71;58.13;101570.25;5039445;28;46152;-85
2022/05/10 06:27:25;;;;;;;;;15.00;14.25;;;;;22.72;58.32;101580.81;5039682;28;45250;-84
2022/05/10 06:29:51;;;;;;;;;16.25;15.25;;;;;22.82;58.75;101576.47;5024897;28;45392;-85
2022/05/10 06:32:25;;;;;;;;;15.75;15.75;;;;;22.85;58.34;101567.69;5020913;28;45404;-84
2022/05/10 06:34:53;;;;;;;;;16.25;15.75;;;;;22.93;57.97;101570.38;5033532;28;45337;-85
2022/05/10 06:40:11;;;;;;;;;17.50;15.00;;;;;22.92;58.33;101573.88;5041031;28;45379;-80
2022/05/10 06:42:37;;;;;;;;;15.25;13.25;;;;;22.97;58.04;101572.13;5034164;28;45735;-84
2022/05/10 06:45:03;;;;;;;;;15.50;15.00;;;;;23.03;57.81;101575.69;5018614;28;45415;-83
2022/05/10 06:47:29;;;;;;;;;17.25;14.25;;;;;23.07;57.59;101565.16;5000196;28;45632;-81
2022/05/10 06:49:54;;;;;;;;;14.50;12.75;;;;;23.10;57.28;101578.41;5018847;28;45360;-83
2022/05/10 06:52:20;;;;;;;;;18.00;14.75;;;;;23.13;57.52;101574.00;5018879;28;45340;-83
2022/05/10 06:54:45;;;;;;;;;15.50;14.25;;;;;23.18;56.92;101576.66;5019783;28;45966;-84
2022/05/10 06:57:11;;;;;;;;;14.00;14.00;;;;;23.22;56.67;101581.09;5018794;28;45548;-84
2022/05/10 06:59:37;;;;;;;;;13.00;12.00;;;;;23.26;56.79;101576.75;5019390;28;45221;-83
2022/05/10 07:02:03;;;;;;;;;12.25;12.25;;;;;23.28;56.68;101567.94;5016746;28;45629;-84
2022/05/10 07:04:29;;;;;;;;;17.00;15.75;;;;;23.30;56.60;101566.19;5015983;28;46091;-84
2022/05/10 07:06:54;;;;;;;;;14.75;14.50;;;;;23.34;56.89;101570.59;5022501;28;45769;-83
2022/05/10 07:09:20;;;;;;;;;14.75;13.25;;;;;23.38;56.50;101568.84;5037391;28;45331;-82
2022/05/10 07:11:46;;;;;;;;;16.25;14.50;;;;;23.38;56.60;101563.53;5036475;28;45559;-85
2022/05/10 07:14:12;;;;;;;;;16.00;15.00;;;;;23.41;56.47;101560.06;5038674;28;45553;-85
2022/05/10 07:16:38;;;;;;;;;14.00;14.00;;;;;23.43;56.60;101563.59;5037484;28;45387;-83
2022/05/10 07:19:04;;;;;;;;;15.00;15.00;;;;;23.45;56.96;101565.34;5041101;28;45475;-83
2022/05/10 07:21:30;;;;;;;;;15.75;15.00;;;;;23.50;56.70;101563.59;5048932;28;45610;-82
2022/05/10 07:23:56;;;;;;;;;15.50;15.50;;;;;23.49;56.89;101553.03;5039553;28;45324;-81
2022/05/10 07:26:22;;;;;;;;;14.50;13.25;;;;;23.52;57.25;101557.44;5036910;28;45268;-81
2022/05/10 07:28:47;;;;;;;;;17.00;16.00;;;;;23.50;57.48;101560.09;5037797;28;45293;-80
2022/05/10 07:31:14;;;;;;;;;15.75;15.75;;;;;23.49;57.26;101564.47;5013361;28;45395;-79
2022/05/10 07:33:39;;;;;;;;;13.75;13.75;;;;;23.44;57.16;101558.31;5028679;28;45415;-80
2022/05/10 07:36:23;;;;;;;;;16.25;15.50;;;;;23.37;57.35;101563.56;5033243;28;45542;-80
2022/05/10 07:38:49;;;;;;;;;18.00;13.50;;;;;23.26;58.10;101559.13;5023814;28;45517;-79
2022/05/10 07:41:18;;;;;;;;;15.00;15.00;;;;;23.21;57.61;101560.88;5036515;28;45436;-80
2022/05/10 07:43:44;;;;;;;;;16.00;14.50;;;;;23.15;58.08;101564.34;5036969;28;46303;-80
2022/05/10 07:46:10;;;;;;;;;14.75;14.50;;;;;23.14;58.28;101569.59;5017390;28;45419;-80
2022/05/10 07:48:36;;;;;;;;;13.50;13.50;;;;;23.14;58.52;101565.22;5030134;28;45423;-80
2022/05/10 07:51:02;;;;;;;;;14.00;13.25;;;;;23.19;58.25;101566.13;5035509;28;45521;-78
2022/05/10 07:53:28;;;;;;;;;15.25;15.25;;;;;23.28;58.33;101559.09;5028762;28;45505;-78
2022/05/10 07:55:54;;;;;;;;;13.75;13.25;;;;;23.40;58.45;101560.94;5029544;28;46004;-79
2022/05/10 07:58:20;;;;;;;;;15.75;12.75;;;;;23.49;57.94;101560.97;5023829;28;46427;-79
2022/05/10 08:00:45;;;;;;;;;15.75;13.75;;;;;23.59;58.50;101564.53;5035712;28;45733;-79
2022/05/10 08:03:20;;;;;;;;;16.50;15.00;;;;;23.66;58.14;101561.00;5035916;28;46132;-78
2022/05/10 08:05:45;;;;;;;;;15.00;15.00;;;;;23.73;57.75;101569.84;5036119;28;45484;-79
2022/05/10 08:08:12;;;;;;;;;13.50;12.25;;;;;23.76;57.68;101575.09;5037453;28;45421;-79
2022/05/10 08:10:39;;;;;;;;;14.25;14.25;;;;;23.78;58.19;101570.72;5032908;28;45498;-79
2022/05/10 08:13:09;;;;;;;;;13.75;12.25;;;;;23.83;57.94;101571.63;5035469;28;45580;-79
2022/05/10 08:15:35;;;;;;;;;16.00;14.50;;;;;23.79;57.86;101578.66;5035542;28;45801;-79
2022/05/10 08:18:00;;;;;;;;;15.50;14.50;;;;;23.70;58.24;101583.03;5017614;28;45520;-79
2022/05/10 08:20:26;;;;;;;;;16.25;14.75;;;;;23.64;58.33;101582.16;5017710;28;45653;-79
2022/05/10 08:22:52;;;;;;;;;17.50;15.75;;;;;23.64;59.05;101578.63;5034839;28;46147;-79
2022/05/10 08:25:17;;;;;;;;;16.25;14.75;;;;;23.66;58.75;101584.81;5035357;28;45655;-78
2022/05/10 08:27:43;;;;;;;;;15.00;14.75;;;;;23.70;58.20;101578.66;5016312;28;45406;-78
2022/05/10 08:30:09;;;;;;;;;14.75;13.75;;;;;23.72;57.94;101574.22;5029507;28;45483;-78
2022/05/10 08:32:35;;;;;;;;;12.75;12.75;;;;;23.73;57.54;101576.00;5030349;28;45707;-79
2022/05/10 08:35:01;;;;;;;;;14.25;12.75;;;;;23.74;57.22;101572.47;5016642;28;45487;-79
2022/05/10 08:37:26;;;;;;;;;13.75;13.75;;;;;23.75;57.74;101571.59;5036396;28;45415;-79
2022/05/10 08:39:52;;;;;;;;;16.00;14.75;;;;;23.75;57.19;101570.72;5018458;28;45051;-80
2022/05/10 08:42:23;;;;;;;;;16.00;15.00;;;;;23.78;57.36;101578.66;5036239;28;45962;-77
2022/05/10 08:45:02;;;;;;;;;14.25;12.50;;;;;23.82;57.51;101569.84;5036936;28;45394;-81
2022/05/10 08:47:30;;;;;;;;;13.00;12.50;;;;;23.88;57.05;101555.75;5036044;28;45399;-81
2022/05/10 08:50:05;;;;;;;;;12.50;12.50;;;;;23.93;56.03;101568.09;5035300;28;45425;-78
2022/05/10 08:52:40;;;;;;;;;12.00;11.25;;;;;24.04;55.30;101576.06;5017403;28;47174;-80
2022/05/10 08:55:08;;;;;;;;;11.50;9.50;;;;;24.10;54.52;101586.69;5035904;28;45442;-79
2022/05/10 08:57:46;;;;;;;;;14.25;13.00;;;;;24.21;54.58;101556.69;5033498;28;45481;-79
2022/05/10 09:00:23;;;;;;;;;13.25;12.25;;;;;24.30;53.95;101569.91;5033139;28;45245;-78
2022/05/10 09:02:58;;;;;;;;;13.00;13.00;;;;;24.41;53.92;101557.56;5040019;28;46365;-80
2022/05/10 09:05:38;;;;;;;;;11.25;11.25;;;;;24.55;54.19;101575.22;5047303;28;45355;-80
2022/05/10 09:08:39;;;;;;;;;14.50;13.25;;;;;24.71;53.16;101554.91;5056591;28;45420;-78
2022/05/10 09:11:12;;;;;;;;;12.25;12.25;;;;;24.86;51.04;101568.09;4997241;28;45867;-78
2022/05/10 09:13:38;;;;;;;;;16.25;12.00;;;;;24.97;51.06;101577.78;5032145;28;46229;-79
2022/05/10 09:16:06;;;;;;;;;14.50;13.50;;;;;25.07;50.49;101552.16;5032209;28;45526;-78
2022/05/10 09:18:53;;;;;;;;;12.00;12.00;;;;;25.12;50.07;101555.66;5021103;28;45518;-78
2022/05/10 09:21:57;;;;;;;;;11.25;10.25;;;;;25.19;49.65;101552.09;5026995;28;45410;-78
2022/05/10 09:24:48;;;;;;;;;11.75;11.75;;;;;25.23;48.81;101559.13;4944277;28;45759;-77
2022/05/10 09:27:14;;;;;;;;;12.00;12.00;;;;;25.29;49.33;101547.63;4954163;28;45790;-78
2022/05/10 09:29:44;;;;;;;;;11.00;10.25;;;;;25.30;48.80;101547.66;5004449;28;45502;-78
2022/05/10 09:35:24;;;;;;;;;10.50;10.50;;;;;25.27;48.43;101541.47;5016638;28;45428;-78
2022/05/10 09:38:00;;;;;;;;;14.25;13.25;;;;;25.23;49.10;101540.59;5027407;28;45974;-79
2022/05/10 09:40:34;;;;;;;;;12.50;11.25;;;;;25.22;49.06;101549.41;5025335;28;45557;-78
2022/05/10 09:43:12;;;;;;;;;13.00;13.00;;;;;25.19;47.93;101544.16;5010144;28;45620;-79
2022/05/10 09:45:38;;;;;;;;;10.50;10.50;;;;;25.12;47.88;101538.00;5023574;28;45501;-78
2022/05/10 09:48:15;;;;;;;;;9.75;9.75;;;;;25.03;47.33;101557.47;5024334;28;45438;-79
2022/05/10 09:50:47;;;;;;;;;11.75;10.50;;;;;24.95;48.16;101534.50;5035764;28;45394;-79
2022/05/10 09:53:27;;;;;;;;;11.25;11.25;;;;;24.88;46.77;101544.28;5031588;28;45555;-79
2022/05/10 09:56:05;;;;;;;;;12.75;11.75;;;;;24.83;47.38;101546.94;5028015;28;45617;-79
2022/05/10 09:58:36;;;;;;;;;13.75;11.00;;;;;24.80;47.86;101532.81;5027401;28;45551;-79
2022/05/10 10:01:05;;;;;;;;;11.25;10.25;;;;;24.80;47.63;101535.44;5028903;28;45561;-78
2022/05/10 10:03:32;;;;;;;;;13.75;13.25;;;;;24.78;48.00;101522.22;5028652;28;45767;-80
2022/05/10 10:06:20;;;;;;;;;12.25;12.25;;;;;24.78;49.16;101522.22;5029195;28;45482;-79
2022/05/10 10:08:55;;;;;;;;;11.00;9.00;;;;;24.81;48.70;101518.69;5037314;28;45321;-80
2022/05/10 10:11:21;;;;;;;;;11.50;11.50;;;;;24.82;48.86;101521.34;5037039;28;46174;-82
2022/05/10 10:13:55;;;;;;;;;9.50;9.50;;;;;24.83;47.47;101517.81;5028226;28;45445;-81
2022/05/10 10:16:28;;;;;;;;;10.75;9.25;;;;;24.81;47.92;101527.53;5019797;28;45266;-80
2022/05/10 10:18:59;;;;;;;;;9.25;7.75;;;;;24.81;47.50;101526.63;5019384;28;45398;-81
2022/05/10 10:21:59;;;;;;;;;10.75;10.75;;;;;24.77;47.29;101522.25;5021380;28;45319;-81
2022/05/10 10:24:36;;;;;;;;;10.50;10.50;;;;;24.80;47.22;101524.84;5016842;28;45494;-82
2022/05/10 10:27:28;;;;;;;;;11.50;11.50;;;;;24.82;46.21;101542.53;5017400;28;45659;-81
2022/05/10 10:30:28;;;;;;;;;11.00;10.00;;;;;24.82;46.56;101528.38;5027654;28;45655;-85
2022/05/10 10:33:05;;;;;;;;;8.50;8.50;;;;;24.82;46.78;101513.41;5007663;28;45738;-85
2022/05/10 10:35:38;;;;;;;;;10.25;10.25;;;;;24.88;46.81;101523.94;5035753;28;45392;-83
2022/05/10 10:38:16;;;;;;;;;8.00;8.00;;;;;24.93;46.25;101529.22;5035190;28;47186;-84
2022/05/10 10:40:48;;;;;;;;;10.50;10.50;;;;;24.98;46.20;101510.66;5033106;28;45258;-87
2022/05/10 10:43:13;;;;;;;;;9.25;9.25;;;;;25.02;44.86;101518.59;5026186;28;45367;-84
2022/05/10 10:45:44;;;;;;;;;8.50;8.50;;;;;25.05;45.81;101544.22;5032760;28;45701;-78
2022/05/10 10:48:19;;;;;;;;;9.50;8.75;;;;;25.08;44.85;101522.13;5038286;28;45558;-84
2022/05/10 10:50:44;;;;;;;;;10.00;10.00;;;;;25.11;44.99;101516.78;5028460;28;45892;-78
2022/05/10 10:53:13;;;;;;;;;11.75;10.25;;;;;25.15;45.22;101522.09;5028852;28;45473;-84
2022/05/10 10:55:47;;;;;;;;;10.00;8.50;;;;;25.20;45.52;101535.31;5033805;28;45496;-83
2022/05/10 10:58:28;;;;;;;;;10.75;10.75;;;;;25.29;45.70;101524.66;5028820;28;46395;-87
2022/05/10 11:01:12;;;;;;;;;13.00;13.00;;;;;25.31;45.54;101520.25;5037713;28;45289;-81
2022/05/10 11:04:04;;;;;;;;;11.00;10.00;;;;;25.34;45.66;101514.03;5031459;28;45376;-84
2022/05/10 11:06:45;;;;;;;;;12.50;10.00;;;;;25.42;45.24;101506.09;5035375;28;46484;-83
2022/05/10 11:09:24;;;;;;;;;10.00;10.00;;;;;25.55;45.31;101494.50;5039984;28;46238;-87
2022/05/10 11:11:52;;;;;;;;;12.00;10.00;;;;;25.67;45.12;101496.19;5026315;28;45427;-86
2022/05/10 11:14:57;;;;;;;;;10.75;10.75;;;;;25.83;44.60;101481.03;5039100;28;45376;-89
2022/05/10 11:17:56;;;;;;;;;9.00;9.00;;;;;26.11;43.85;101470.19;5040391;28;45228;-87
2022/05/10 11:20:47;;;;;;;;;10.00;10.00;;;;;26.34;43.07;101487.69;5038992;28;46241;-88
2022/05/10 11:23:28;;;;;;;;;10.25;9.25;;;;;26.57;41.50;101487.44;5014318;28;45236;-83
2022/05/10 11:25:54;;;;;;;;;10.75;8.50;;;;;26.68;41.32;101476.69;5040003;28;45445;-83
2022/05/10 11:28:24;;;;;;;;;9.75;9.75;;;;;26.73;41.37;101477.50;5020450;28;45444;-84
2022/05/10 11:31:03;;;;;;;;;9.50;8.50;;;;;26.72;42.63;101471.31;5035323;28;45443;-86
2022/05/10 11:34:00;;;;;;;;;9.50;9.50;;;;;26.77;42.03;101470.41;5019776;28;45768;-83
2022/05/10 11:36:41;;;;;;;;;10.50;10.00;;;;;26.77;41.79;101489.84;5035845;28;45519;-84
2022/05/10 11:39:44;;;;;;;;;11.00;11.00;;;;;26.72;41.11;101489.06;5024157;28;45286;-84
2022/05/10 11:42:18;;;;;;;;;8.25;8.25;;;;;26.77;41.86;101470.41;5026472;28;46099;-82